Airport View

Enter AWOS ICAO identifier for current METAR.

ex. KFNL

KSMO 041351Z AUTO 00000KT 10SM CLR 17/14 A2999 RMK AO2 SLP153 T01720144

4 Jul 2020 14:21

Phone: 310-392-6453

Other Area AWOS: KLAX - KHHR - KCQT - KVNY

TAF KSMO 041141Z 0412/0512 VRB03KT P6SM SKC FM042000 24008KT P6SM SKC FM050300 VRB03KT P6SM SKC